createdAt,value
2023-08-26T00:00:04.239Z,35.47
2023-08-26T00:02:32.688Z,37.78
2023-08-26T00:05:01.055Z,29.33
2023-08-26T00:07:30.910Z,31.13
2023-08-26T00:09:59.268Z,30.70
2023-08-26T00:12:27.730Z,29.80
2023-08-26T00:14:56.205Z,32.08
2023-08-26T00:17:24.766Z,33.50
2023-08-26T00:19:53.609Z,31.00
2023-08-26T00:22:22.111Z,25.45
2023-08-26T00:24:51.902Z,26.67
2023-08-26T00:27:20.415Z,28.25
2023-08-26T00:29:48.760Z,29.25
2023-08-26T00:32:17.104Z,35.08
2023-08-26T00:34:45.813Z,29.75
2023-08-26T00:37:14.269Z,29.27
2023-08-26T00:39:42.686Z,34.60
2023-08-26T00:42:12.401Z,38.85
2023-08-26T00:44:40.804Z,27.25
2023-08-26T00:47:09.278Z,31.80
2023-08-26T00:49:38.131Z,37.92
2023-08-26T00:52:08.239Z,31.92
2023-08-26T00:54:37.814Z,27.77
2023-08-26T00:57:08.183Z,26.33
2023-08-26T00:59:38.280Z,29.73
2023-08-26T01:02:07.195Z,27.45
2023-08-26T01:04:36.593Z,32.58
2023-08-26T01:07:05.253Z,27.02
2023-08-26T01:09:34.145Z,27.23
2023-08-26T01:12:14.806Z,31.27
2023-08-26T01:14:54.331Z,37.33
2023-08-26T01:17:23.695Z,31.15
2023-08-26T01:19:54.089Z,28.63
2023-08-26T01:22:25.944Z,28.80
2023-08-26T01:24:55.872Z,31.42
2023-08-26T01:27:24.389Z,30.67
2023-08-26T01:29:52.813Z,32.10
2023-08-26T01:32:32.020Z,32.83
2023-08-26T01:35:01.904Z,31.13
2023-08-26T01:37:30.693Z,35.03
2023-08-26T01:40:05.135Z,33.10
2023-08-26T01:42:37.970Z,31.33
2023-08-26T01:45:08.015Z,37.30
2023-08-26T01:47:36.431Z,29.40
2023-08-26T01:50:05.375Z,35.42
2023-08-26T01:52:33.861Z,27.92
2023-08-26T01:55:04.218Z,37.13
2023-08-26T01:57:32.628Z,26.10
2023-08-26T02:00:01.295Z,31.33
2023-08-26T02:02:29.667Z,31.67
2023-08-26T02:04:58.473Z,26.00
2023-08-26T02:07:26.913Z,24.52
2023-08-26T02:09:55.278Z,26.00
2023-08-26T02:12:25.204Z,21.45
2023-08-26T02:14:53.602Z,34.45
2023-08-26T02:17:21.924Z,24.48
2023-08-26T02:19:50.545Z,31.40
2023-08-26T02:22:19.015Z,30.85
2023-08-26T02:24:48.179Z,29.30
2023-08-26T02:27:16.771Z,32.42
2023-08-26T02:29:46.604Z,28.05
2023-08-26T02:32:14.982Z,28.05
2023-08-26T02:34:43.338Z,32.17
2023-08-26T02:37:11.785Z,34.10
2023-08-26T02:39:40.945Z,27.15
2023-08-26T02:42:09.425Z,30.73
2023-08-26T02:44:38.163Z,25.88
2023-08-26T02:47:08.158Z,28.70
2023-08-26T02:49:36.493Z,29.15
2023-08-26T02:52:04.982Z,25.65
2023-08-26T02:54:33.590Z,26.88
2023-08-26T02:57:01.955Z,33.10
2023-08-26T02:59:30.912Z,24.08
2023-08-26T03:02:05.112Z,26.10
2023-08-26T03:04:35.046Z,28.95
2023-08-26T03:07:03.449Z,24.05
2023-08-26T03:09:31.828Z,29.52
2023-08-26T03:12:01.352Z,22.75
2023-08-26T03:14:29.894Z,28.40
2023-08-26T03:16:58.295Z,24.27
2023-08-26T03:19:26.664Z,28.15
2023-08-26T03:21:57.395Z,21.73
2023-08-26T03:24:26.049Z,25.08
2023-08-26T03:26:54.409Z,20.98
2023-08-26T03:29:22.849Z,26.50
2023-08-26T03:31:51.342Z,19.90
2023-08-26T03:34:19.765Z,20.48
2023-08-26T03:36:48.254Z,26.48
2023-08-26T03:39:18.012Z,24.15
2023-08-26T03:41:46.438Z,27.77
2023-08-26T03:44:14.965Z,17.63
2023-08-26T03:46:43.357Z,14.35
2023-08-26T03:49:13.641Z,10.23
2023-08-26T03:51:43.929Z,9.73
2023-08-26T03:54:12.307Z,12.60
2023-08-26T03:56:42.153Z,7.75
2023-08-26T03:59:10.600Z,9.85
2023-08-26T04:01:39.325Z,4.15
2023-08-26T04:04:08.007Z,10.98
2023-08-26T04:06:36.353Z,7.15
2023-08-26T04:09:04.810Z,6.85
2023-08-26T04:11:33.215Z,5.65
2023-08-26T04:14:02.955Z,12.18
2023-08-26T04:16:31.367Z,10.52
2023-08-26T04:18:59.685Z,10.63
2023-08-26T04:21:28.351Z,12.45
2023-08-26T04:23:56.745Z,13.43
2023-08-26T04:26:25.303Z,13.10
2023-08-26T04:28:53.664Z,9.45
2023-08-26T04:31:24.147Z,11.75
2023-08-26T04:33:53.558Z,9.57
2023-08-26T04:36:22.015Z,7.20
2023-08-26T04:38:50.626Z,7.95
2023-08-26T04:41:19.857Z,8.57
2023-08-26T04:43:48.751Z,12.27
2023-08-26T04:46:17.138Z,6.90
2023-08-26T04:48:47.174Z,14.05
2023-08-26T04:51:15.518Z,9.05
2023-08-26T04:53:44.197Z,13.13
2023-08-26T04:56:12.571Z,6.57
2023-08-26T04:58:40.935Z,10.18
2023-08-26T05:01:09.434Z,8.82
2023-08-26T05:03:38.277Z,9.55
2023-08-26T05:06:08.169Z,10.02
2023-08-26T05:08:36.637Z,8.23
2023-08-26T05:11:07.929Z,6.32
2023-08-26T05:13:36.488Z,5.07
2023-08-26T05:16:05.170Z,4.80
2023-08-26T05:18:33.888Z,4.60
2023-08-26T05:21:02.901Z,4.00
2023-08-26T05:23:33.108Z,6.40
2023-08-26T05:26:01.577Z,12.30
2023-08-26T05:28:30.140Z,7.85
2023-08-26T05:30:58.974Z,5.10
2023-08-26T05:33:27.374Z,10.50
2023-08-26T05:35:55.890Z,8.90
2023-08-26T05:38:24.422Z,3.38
2023-08-26T05:40:54.199Z,6.57
2023-08-26T05:43:22.551Z,6.75
2023-08-26T05:45:50.952Z,9.50
2023-08-26T05:48:19.442Z,8.98
2023-08-26T05:50:47.812Z,5.20
2023-08-26T05:53:16.127Z,5.68
2023-08-26T05:55:44.779Z,11.20
2023-08-26T05:58:14.602Z,11.48
2023-08-26T06:00:43.330Z,9.35
2023-08-26T06:03:11.941Z,7.25
2023-08-26T06:05:40.349Z,8.32
2023-08-26T06:08:08.905Z,8.00
2023-08-26T06:10:37.735Z,7.63
2023-08-26T06:13:06.510Z,5.85
2023-08-26T06:15:36.261Z,7.72
2023-08-26T06:18:04.992Z,8.43
2023-08-26T06:20:34.018Z,10.10
2023-08-26T06:23:03.756Z,10.32
2023-08-26T06:25:33.700Z,11.00
2023-08-26T06:28:02.424Z,7.00
2023-08-26T06:30:30.763Z,5.65
2023-08-26T06:33:00.641Z,7.45
2023-08-26T06:35:28.996Z,7.15
2023-08-26T06:37:58.607Z,10.23
2023-08-26T06:40:27.234Z,5.30
2023-08-26T06:42:55.612Z,5.40
2023-08-26T06:45:23.983Z,6.70
2023-08-26T06:47:52.591Z,7.82
2023-08-26T06:50:22.572Z,8.35
2023-08-26T06:52:51.459Z,10.50
2023-08-26T06:55:20.753Z,5.20
2023-08-26T06:57:49.179Z,8.15
2023-08-26T07:00:19.219Z,5.68
2023-08-26T07:02:47.686Z,6.47
2023-08-26T07:05:16.316Z,6.97
2023-08-26T07:07:46.329Z,4.65
2023-08-26T07:10:14.852Z,6.13
2023-08-26T07:12:43.270Z,6.57
2023-08-26T07:15:12.328Z,6.28
2023-08-26T07:17:40.765Z,3.92
2023-08-26T07:20:11.846Z,9.32
2023-08-26T07:22:40.321Z,5.07
2023-08-26T07:25:11.059Z,5.65
2023-08-26T07:27:40.345Z,9.20
2023-08-26T07:30:10.442Z,5.22
2023-08-26T07:32:38.981Z,4.15
2023-08-26T07:35:08.957Z,5.93
2023-08-26T07:37:37.606Z,8.63
2023-08-26T07:40:07.973Z,8.65
2023-08-26T07:42:38.106Z,5.05
2023-08-26T07:45:07.976Z,5.75
2023-08-26T07:50:09.390Z,4.07
2023-08-26T07:52:39.539Z,4.55
2023-08-26T07:55:08.913Z,10.95
2023-08-26T07:57:38.841Z,5.70
2023-08-26T08:00:10.507Z,3.53
2023-08-26T08:02:39.140Z,5.70
2023-08-26T08:05:08.779Z,4.68
2023-08-26T08:07:38.014Z,6.30
2023-08-26T08:10:08.006Z,4.25
2023-08-26T08:12:38.248Z,2.88
2023-08-26T08:15:08.492Z,5.03
2023-08-26T08:17:37.180Z,4.82
2023-08-26T08:20:07.014Z,5.68
2023-08-26T08:22:42.717Z,4.03
2023-08-26T08:25:12.423Z,4.38
2023-08-26T08:27:42.501Z,4.72
2023-08-26T08:30:11.683Z,4.97
2023-08-26T08:32:40.076Z,8.20
2023-08-26T08:35:10.040Z,7.80
2023-08-26T08:37:38.585Z,8.80
2023-08-26T08:40:08.977Z,3.78
2023-08-26T08:42:38.630Z,4.45
2023-08-26T08:45:11.784Z,2.83
2023-08-26T08:47:42.616Z,8.05
2023-08-26T08:50:11.891Z,5.10
2023-08-26T08:52:44.428Z,4.18
2023-08-26T08:55:12.951Z,5.05
2023-08-26T08:57:45.134Z,5.88
2023-08-26T09:00:16.038Z,5.20
2023-08-26T09:02:47.415Z,5.75
2023-08-26T09:05:16.392Z,5.53
2023-08-26T09:07:45.118Z,5.78
2023-08-26T09:10:14.125Z,4.07
2023-08-26T09:12:42.629Z,3.25
2023-08-26T09:15:11.527Z,4.15
2023-08-26T09:17:47.644Z,3.38
2023-08-26T09:20:16.484Z,6.75
2023-08-26T09:22:44.857Z,3.00
2023-08-26T09:25:13.235Z,2.10
2023-08-26T09:27:44.136Z,2.35
2023-08-26T09:30:19.856Z,5.07
2023-08-26T09:32:51.013Z,3.10
2023-08-26T09:38:10.872Z,2.85
2023-08-26T09:40:40.963Z,2.97
2023-08-26T09:43:10.600Z,2.15
2023-08-26T09:45:39.672Z,1.83
2023-08-26T09:48:09.754Z,4.80
2023-08-26T09:50:38.468Z,1.83
2023-08-26T09:53:06.844Z,1.65
2023-08-26T09:55:35.459Z,4.80
2023-08-26T09:58:04.277Z,2.22
2023-08-26T10:00:33.411Z,5.20
2023-08-26T10:03:03.716Z,3.53
2023-08-26T10:05:39.813Z,3.55
2023-08-26T10:08:11.640Z,3.20
2023-08-26T10:10:49.029Z,2.47
2023-08-26T10:13:22.236Z,2.55
2023-08-26T10:15:53.911Z,5.05
2023-08-26T10:18:34.847Z,2.40
2023-08-26T10:21:05.593Z,3.50
2023-08-26T10:23:35.939Z,2.30
2023-08-26T10:26:04.720Z,2.75
2023-08-26T10:28:36.543Z,5.32
2023-08-26T10:31:09.303Z,5.53
2023-08-26T10:34:03.225Z,3.15
2023-08-26T10:36:36.874Z,1.40
2023-08-26T10:39:06.868Z,0.75
2023-08-26T10:41:35.326Z,2.70
2023-08-26T10:44:04.274Z,2.40
2023-08-26T10:46:39.841Z,2.17
2023-08-26T10:49:08.271Z,6.03
2023-08-26T10:51:39.619Z,2.72
2023-08-26T10:54:08.696Z,3.38
2023-08-26T10:56:40.714Z,4.88
2023-08-26T10:59:10.218Z,1.93
2023-08-26T11:01:39.418Z,3.80
2023-08-26T11:04:08.463Z,2.65
2023-08-26T11:06:42.862Z,1.88
2023-08-26T11:09:12.911Z,4.20
2023-08-26T11:11:42.457Z,3.00
2023-08-26T11:14:11.163Z,2.13
2023-08-26T11:16:39.597Z,3.30
2023-08-26T11:19:09.791Z,3.78
2023-08-26T11:21:40.561Z,2.10
2023-08-26T11:24:09.596Z,1.40
2023-08-26T11:26:38.222Z,4.53
2023-08-26T11:29:06.863Z,4.32
2023-08-26T11:31:35.358Z,3.00
2023-08-26T11:34:03.929Z,3.83
2023-08-26T11:36:32.520Z,4.68
2023-08-26T11:39:02.444Z,1.45
2023-08-26T11:41:30.882Z,2.47
2023-08-26T11:43:59.300Z,4.60
2023-08-26T11:46:28.016Z,2.28
2023-08-26T11:48:57.012Z,1.23
2023-08-26T11:51:29.584Z,2.03
2023-08-26T11:53:58.010Z,1.10
2023-08-26T11:56:28.113Z,3.70
2023-08-26T11:58:56.516Z,4.97
2023-08-26T12:01:25.873Z,2.72
2023-08-26T12:03:56.005Z,3.20
2023-08-26T12:06:24.569Z,1.65
2023-08-26T12:08:54.195Z,4.10
2023-08-26T12:11:23.501Z,3.20
2023-08-26T12:13:53.277Z,3.95
2023-08-26T12:16:22.377Z,1.33
2023-08-26T12:18:54.521Z,1.67
2023-08-26T12:21:23.108Z,2.17
2023-08-26T12:23:51.485Z,2.03
2023-08-26T12:26:19.886Z,2.15
2023-08-26T12:28:48.310Z,1.45
2023-08-26T12:31:19.368Z,4.07
2023-08-26T12:33:59.359Z,1.65
2023-08-26T12:36:28.639Z,2.42
2023-08-26T12:38:57.068Z,0.98
2023-08-26T12:41:25.863Z,1.75
2023-08-26T12:43:56.362Z,2.35
2023-08-26T12:46:26.957Z,1.00
2023-08-26T12:48:56.498Z,2.33
2023-08-26T12:51:25.881Z,4.22
2023-08-26T12:53:54.352Z,2.05
2023-08-26T12:56:23.027Z,2.70
2023-08-26T12:58:52.706Z,2.03
2023-08-26T13:01:21.291Z,3.72
2023-08-26T13:03:51.090Z,3.35
2023-08-26T13:06:20.632Z,4.57
2023-08-26T13:08:48.997Z,2.47
2023-08-26T13:11:17.350Z,2.92
2023-08-26T13:13:45.706Z,4.22
2023-08-26T13:16:14.315Z,2.45
2023-08-26T13:18:44.917Z,1.67
2023-08-26T13:21:14.686Z,0.60
2023-08-26T13:23:43.246Z,2.05
2023-08-26T13:26:11.642Z,3.08
2023-08-26T13:28:40.296Z,4.18
2023-08-26T13:31:09.730Z,3.75
2023-08-26T13:33:38.242Z,1.52
2023-08-26T13:36:08.358Z,2.08
2023-08-26T13:38:38.157Z,1.83
2023-08-26T13:41:06.572Z,1.40
2023-08-26T13:43:34.961Z,1.35
2023-08-26T13:46:03.427Z,1.38
2023-08-26T13:48:31.777Z,3.50
2023-08-26T13:51:00.138Z,2.85
2023-08-26T13:53:28.586Z,1.25
2023-08-26T13:55:59.681Z,1.23
2023-08-26T13:58:28.121Z,1.58
2023-08-26T14:00:58.764Z,3.67
2023-08-26T14:03:27.931Z,1.77
2023-08-26T14:05:56.614Z,1.17
2023-08-26T14:08:25.251Z,2.00
2023-08-26T14:10:55.400Z,1.80
2023-08-26T14:13:25.195Z,1.52
2023-08-26T14:15:53.975Z,2.75
2023-08-26T14:18:22.857Z,1.27
2023-08-26T14:20:51.549Z,5.75
2023-08-26T14:23:19.942Z,2.95
2023-08-26T14:25:48.348Z,2.13
2023-08-26T14:28:16.940Z,3.13
2023-08-26T14:30:46.702Z,1.63
2023-08-26T14:33:15.058Z,1.38
2023-08-26T14:35:51.830Z,4.55
2023-08-26T14:38:20.542Z,1.60
2023-08-26T14:40:50.983Z,1.75
2023-08-26T14:43:20.456Z,1.50
2023-08-26T14:45:51.065Z,5.28
2023-08-26T14:48:19.604Z,0.80
2023-08-26T14:50:52.286Z,4.20
2023-08-26T14:53:20.659Z,1.23
2023-08-26T14:55:49.026Z,3.63
2023-08-26T14:58:17.468Z,2.33
2023-08-26T15:00:45.833Z,1.25
2023-08-26T15:03:15.697Z,3.30
2023-08-26T15:05:53.939Z,1.85
2023-08-26T15:08:22.254Z,2.38
2023-08-26T15:10:50.653Z,1.98
2023-08-26T15:13:22.074Z,2.20
2023-08-26T15:15:50.736Z,2.83
2023-08-26T15:18:23.981Z,1.75
2023-08-26T15:20:52.650Z,2.00
2023-08-26T15:23:21.042Z,0.95
2023-08-26T15:25:52.132Z,6.72
2023-08-26T15:28:20.868Z,2.03
2023-08-26T15:30:51.804Z,5.65
2023-08-26T15:33:23.025Z,1.58
2023-08-26T15:35:52.242Z,1.15
2023-08-26T15:38:21.425Z,1.73
2023-08-26T15:40:56.329Z,2.95
2023-08-26T15:43:25.366Z,2.30
2023-08-26T15:45:54.322Z,4.43
2023-08-26T15:48:24.513Z,4.65
2023-08-26T15:50:53.450Z,2.00
2023-08-26T15:53:22.591Z,2.45
2023-08-26T15:55:51.573Z,1.83
2023-08-26T15:58:20.298Z,3.30
2023-08-26T16:00:48.874Z,2.97
2023-08-26T16:03:19.134Z,1.95
2023-08-26T16:05:50.049Z,2.13
2023-08-26T16:08:18.510Z,6.13
2023-08-26T16:10:47.165Z,5.32
2023-08-26T16:13:15.651Z,3.85
2023-08-26T16:15:44.084Z,2.65
2023-08-26T16:18:14.084Z,2.13
2023-08-26T16:20:42.440Z,4.22
2023-08-26T16:23:12.136Z,2.80
2023-08-26T16:25:40.600Z,1.80
2023-08-26T16:28:09.036Z,2.15
2023-08-26T16:30:37.421Z,3.22
2023-08-26T16:33:06.160Z,2.50
2023-08-26T16:35:35.286Z,3.13
2023-08-26T16:38:03.884Z,4.97
2023-08-26T16:40:34.376Z,6.47
2023-08-26T16:43:04.010Z,2.58
2023-08-26T16:45:32.557Z,2.08
2023-08-26T16:48:00.962Z,2.00
2023-08-26T16:50:30.101Z,2.05
2023-08-26T16:52:58.725Z,2.55
2023-08-26T16:55:27.409Z,2.00
2023-08-26T16:57:57.968Z,2.67
2023-08-26T17:00:26.318Z,3.45
2023-08-26T17:02:55.726Z,2.50
2023-08-26T17:05:24.395Z,6.13
2023-08-26T17:07:52.791Z,2.20
2023-08-26T17:10:21.358Z,3.78
2023-08-26T17:12:49.817Z,4.70
2023-08-26T17:15:19.817Z,2.05
2023-08-26T17:17:48.282Z,1.23
2023-08-26T17:20:16.805Z,4.18
2023-08-26T17:22:45.214Z,1.75
2023-08-26T17:25:13.578Z,2.88
2023-08-26T17:27:41.934Z,1.55
2023-08-26T17:30:11.193Z,3.47
2023-08-26T17:32:41.202Z,3.45
2023-08-26T17:35:10.615Z,4.30
2023-08-26T17:37:39.024Z,3.80
2023-08-26T17:40:08.545Z,4.05
2023-08-26T17:42:38.888Z,2.95
2023-08-26T17:45:08.634Z,4.25
2023-08-26T17:47:37.163Z,7.05
2023-08-26T17:50:08.765Z,6.95
2023-08-26T17:52:37.077Z,9.13
2023-08-26T17:55:06.554Z,2.83
2023-08-26T17:57:35.144Z,3.58
2023-08-26T18:00:05.093Z,1.58
2023-08-26T18:02:33.539Z,3.17
2023-08-26T18:05:02.191Z,4.25
2023-08-26T18:07:31.930Z,4.28
2023-08-26T18:10:00.503Z,4.03
2023-08-26T18:12:28.914Z,3.65
2023-08-26T18:14:57.750Z,5.22
2023-08-26T18:17:26.136Z,6.53
2023-08-26T18:19:54.548Z,2.45
2023-08-26T18:22:22.894Z,4.18
2023-08-26T18:24:52.687Z,7.47
2023-08-26T18:27:21.052Z,8.27
2023-08-26T18:29:49.433Z,8.13
2023-08-26T18:32:18.020Z,3.63
2023-08-26T18:34:46.421Z,5.10
2023-08-26T18:37:16.746Z,6.07
2023-08-26T18:39:45.481Z,2.50
2023-08-26T18:42:16.290Z,4.22
2023-08-26T18:44:46.659Z,1.33
2023-08-26T18:47:15.181Z,3.15
2023-08-26T18:49:43.761Z,4.63
2023-08-26T18:52:13.008Z,5.78
2023-08-26T18:54:41.535Z,3.97
2023-08-26T18:57:10.982Z,3.42
2023-08-26T18:59:41.178Z,2.08
2023-08-26T19:02:09.616Z,5.70
2023-08-26T19:04:38.029Z,6.75
2023-08-26T19:07:06.567Z,4.00
2023-08-26T19:09:35.228Z,2.72
2023-08-26T19:12:03.893Z,5.10
2023-08-26T19:14:32.254Z,5.10
2023-08-26T19:17:02.005Z,3.75
2023-08-26T19:19:30.420Z,3.85
2023-08-26T19:21:58.736Z,8.65
2023-08-26T19:24:27.207Z,7.07
2023-08-26T19:26:55.546Z,4.13
2023-08-26T19:29:24.965Z,5.70
2023-08-26T19:31:53.530Z,8.02
2023-08-26T19:34:23.320Z,2.00
2023-08-26T19:36:51.700Z,5.47
2023-08-26T19:39:20.226Z,3.55
2023-08-26T19:41:48.607Z,7.47
2023-08-26T19:44:16.966Z,5.30
2023-08-26T19:46:45.349Z,5.80
2023-08-26T19:49:13.750Z,5.00
2023-08-26T19:51:43.526Z,4.35
2023-08-26T19:54:11.952Z,5.47
2023-08-26T19:56:41.153Z,4.65
2023-08-26T19:59:09.511Z,5.85
2023-08-26T20:01:38.031Z,8.13
2023-08-26T20:04:06.904Z,17.60
2023-08-26T20:06:35.280Z,4.40
2023-08-26T20:09:05.554Z,5.10
2023-08-26T20:11:33.969Z,7.78
2023-08-26T20:14:02.351Z,2.67
2023-08-26T20:16:30.757Z,7.18
2023-08-26T20:18:59.143Z,7.88
2023-08-26T20:21:27.997Z,4.15
2023-08-26T20:23:56.486Z,7.50
2023-08-26T20:26:26.491Z,3.42
2023-08-26T20:28:56.378Z,9.20
2023-08-26T20:31:24.722Z,5.55
2023-08-26T20:33:53.785Z,2.40
2023-08-26T20:36:22.350Z,7.38
2023-08-26T20:38:51.418Z,5.90
2023-08-26T20:41:20.062Z,7.75
2023-08-26T20:43:50.301Z,4.93
2023-08-26T20:46:18.923Z,11.57
2023-08-26T20:48:47.297Z,3.78
2023-08-26T20:51:15.912Z,5.63
2023-08-26T20:53:45.275Z,2.30
2023-08-26T20:56:14.450Z,3.78
2023-08-26T20:58:42.850Z,5.63
2023-08-26T21:01:12.689Z,5.25
2023-08-26T21:03:41.430Z,7.95
2023-08-26T21:06:09.931Z,4.60
2023-08-26T21:08:38.303Z,8.10
2023-08-26T21:11:07.209Z,4.53
2023-08-26T21:13:36.308Z,6.18
2023-08-26T21:16:04.774Z,7.53
2023-08-26T21:18:35.564Z,4.13
2023-08-26T21:21:04.078Z,1.88
2023-08-26T21:23:32.624Z,9.73
2023-08-26T21:26:01.105Z,5.07
2023-08-26T21:28:30.482Z,5.57
2023-08-26T21:30:59.620Z,3.78
2023-08-26T21:33:28.062Z,4.63
2023-08-26T21:35:57.785Z,4.03
2023-08-26T21:38:26.126Z,7.60
2023-08-26T21:40:54.502Z,4.53
2023-08-26T21:43:23.164Z,6.53
2023-08-26T21:45:51.525Z,8.05
2023-08-26T21:48:20.119Z,2.92
2023-08-26T21:50:48.507Z,6.97
2023-08-26T21:53:18.384Z,8.15
2023-08-26T21:55:52.215Z,5.95
2023-08-26T21:58:21.341Z,4.25
2023-08-26T22:00:49.912Z,10.45
2023-08-26T22:03:18.666Z,6.90
2023-08-26T22:05:50.757Z,3.45
2023-08-26T22:08:20.932Z,10.80
2023-08-26T22:10:49.270Z,7.63
2023-08-26T22:13:17.802Z,6.47
2023-08-26T22:15:46.198Z,3.42
2023-08-26T22:18:13.904Z,5.47
2023-08-26T22:20:43.790Z,4.78
2023-08-26T22:23:12.294Z,12.60
2023-08-26T22:25:42.070Z,8.52
2023-08-26T22:28:10.440Z,7.22
2023-08-26T22:30:40.701Z,8.98
2023-08-26T22:33:09.281Z,8.77
2023-08-26T22:35:37.902Z,8.80
2023-08-26T22:38:06.543Z,6.72
2023-08-26T22:40:34.931Z,5.88
2023-08-26T22:43:04.928Z,6.13
2023-08-26T22:45:34.258Z,4.50
2023-08-26T22:48:02.649Z,6.22
2023-08-26T22:50:31.441Z,6.95
2023-08-26T22:53:00.150Z,6.07
2023-08-26T22:55:28.784Z,7.90
2023-08-26T22:57:57.264Z,7.55
2023-08-26T23:00:27.054Z,8.48
2023-08-26T23:02:55.431Z,10.13
2023-08-26T23:05:23.830Z,11.30
2023-08-26T23:07:52.183Z,4.35
2023-08-26T23:10:20.686Z,6.43
2023-08-26T23:12:49.121Z,13.90
2023-08-26T23:15:17.926Z,5.68
2023-08-26T23:17:48.361Z,3.97
2023-08-26T23:20:16.789Z,4.90
2023-08-26T23:22:47.375Z,7.18
2023-08-26T23:25:16.066Z,8.75
2023-08-26T23:27:44.475Z,6.18
2023-08-26T23:30:14.259Z,4.07
2023-08-26T23:32:42.949Z,4.95
2023-08-26T23:35:14.417Z,8.02
2023-08-26T23:37:42.860Z,9.07
2023-08-26T23:40:12.128Z,8.10
2023-08-26T23:42:40.647Z,4.47
2023-08-26T23:45:10.649Z,6.78
2023-08-26T23:47:39.052Z,5.25
2023-08-26T23:50:08.635Z,7.47
2023-08-26T23:52:39.328Z,7.25
2023-08-26T23:55:10.087Z,13.05
2023-08-26T23:57:38.931Z,7.95
